sensor_id;sensor_type;location;lat;lon;timestamp;pressure;altitude;pressure_sealevel;temperature;humidity
44103;BME280;29769;42.178;24.742;2022-12-18T00:02:28;100234.59;;;9.13;100.00
44103;BME280;29769;42.178;24.742;2022-12-18T00:05:13;100228.44;;;9.28;100.00
44103;BME280;29769;42.178;24.742;2022-12-18T00:07:57;100226.66;;;9.41;100.00
44103;BME280;29769;42.178;24.742;2022-12-18T00:10:42;100235.44;;;9.49;100.00
44103;BME280;29769;42.178;24.742;2022-12-18T00:13:27;100242.41;;;9.56;100.00
44103;BME280;29769;42.178;24.742;2022-12-18T00:16:13;100250.28;;;9.51;100.00
44103;BME280;29769;42.178;24.742;2022-12-18T00:18:58;100252.91;;;9.45;100.00
44103;BME280;29769;42.178;24.742;2022-12-18T00:21:43;100266.94;;;9.43;100.00
44103;BME280;29769;42.178;24.742;2022-12-18T00:24:28;100273.09;;;9.17;100.00
44103;BME280;29769;42.178;24.742;2022-12-18T00:27:13;100286.22;;;9.16;100.00
44103;BME280;29769;42.178;24.742;2022-12-18T00:29:57;100289.69;;;9.18;100.00
44103;BME280;29769;42.178;24.742;2022-12-18T00:32:42;100287.97;;;9.08;100.00
44103;BME280;29769;42.178;24.742;2022-12-18T00:35:27;100283.59;;;9.01;100.00
44103;BME280;29769;42.178;24.742;2022-12-18T00:38:12;100285.34;;;8.97;100.00
44103;BME280;29769;42.178;24.742;2022-12-18T00:40:57;100287.97;;;8.99;100.00
44103;BME280;29769;42.178;24.742;2022-12-18T00:43:42;100294.97;;;9.03;100.00
44103;BME280;29769;42.178;24.742;2022-12-18T00:46:26;100300.19;;;9.00;100.00
44103;BME280;29769;42.178;24.742;2022-12-18T00:49:11;100302.81;;;8.97;100.00
44103;BME280;29769;42.178;24.742;2022-12-18T00:51:56;100308.94;;;8.92;100.00
44103;BME280;29769;42.178;24.742;2022-12-18T00:54:40;100294.97;;;9.06;100.00
44103;BME280;29769;42.178;24.742;2022-12-18T00:57:25;100312.47;;;9.13;100.00
44103;BME280;29769;42.178;24.742;2022-12-18T01:00:11;100303.72;;;9.17;100.00
44103;BME280;29769;42.178;24.742;2022-12-18T01:02:56;100306.34;;;9.03;100.00
44103;BME280;29769;42.178;24.742;2022-12-18T01:05:42;100309.84;;;9.07;100.00
44103;BME280;29769;42.178;24.742;2022-12-18T01:08:27;100299.34;;;9.20;100.00
44103;BME280;29769;42.178;24.742;2022-12-18T01:11:20;100304.59;;;9.23;100.00
44103;BME280;29769;42.178;24.742;2022-12-18T01:14:06;100303.69;;;9.32;100.00
44103;BME280;29769;42.178;24.742;2022-12-18T01:16:50;100310.72;;;9.24;100.00
44103;BME280;29769;42.178;24.742;2022-12-18T01:19:35;100305.47;;;9.34;100.00
44103;BME280;29769;42.178;24.742;2022-12-18T01:22:19;100292.34;;;9.37;100.00
44103;BME280;29769;42.178;24.742;2022-12-18T01:25:04;100297.56;;;9.41;100.00
44103;BME280;29769;42.178;24.742;2022-12-18T01:27:49;100302.81;;;9.18;100.00
44103;BME280;29769;42.178;24.742;2022-12-18T01:30:34;100305.47;;;9.15;100.00
44103;BME280;29769;42.178;24.742;2022-12-18T01:33:19;100301.09;;;9.24;100.00
44103;BME280;29769;42.178;24.742;2022-12-18T01:36:04;100302.84;;;9.19;100.00
44103;BME280;29769;42.178;24.742;2022-12-18T01:38:48;100304.59;;;9.25;100.00
44103;BME280;29769;42.178;24.742;2022-12-18T01:41:34;100303.72;;;9.29;100.00
44103;BME280;29769;42.178;24.742;2022-12-18T01:55:50;100313.34;;;9.06;100.00
44103;BME280;29769;42.178;24.742;2022-12-18T01:58:58;100311.59;;;8.99;100.00
44103;BME280;29769;42.178;24.742;2022-12-18T02:01:40;100318.53;;;8.71;100.00
44103;BME280;29769;42.178;24.742;2022-12-18T02:04:26;100322.81;;;8.46;100.00
44103;BME280;29769;42.178;24.742;2022-12-18T02:15:31;100333.19;;;8.19;100.00
44103;BME280;29769;42.178;24.742;2022-12-18T02:18:21;100330.66;;;8.31;100.00
44103;BME280;29769;42.178;24.742;2022-12-18T02:21:11;100335.91;;;8.35;100.00
44103;BME280;29769;42.178;24.742;2022-12-18T02:26:51;100338.59;;;8.52;100.00
44103;BME280;29769;42.178;24.742;2022-12-18T02:29:47;100340.38;;;8.62;100.00
44103;BME280;29769;42.178;24.742;2022-12-18T02:32:35;100343.00;;;8.65;100.00
44103;BME280;29769;42.178;24.742;2022-12-18T02:35:23;100347.41;;;8.75;100.00
44103;BME280;29769;42.178;24.742;2022-12-18T02:38:11;100340.44;;;8.85;100.00
44103;BME280;29769;42.178;24.742;2022-12-18T02:40:58;100339.56;;;8.89;100.00
44103;BME280;29769;42.178;24.742;2022-12-18T02:43:48;100348.28;;;8.83;100.00
44103;BME280;29769;42.178;24.742;2022-12-18T02:46:39;100334.22;;;8.53;100.00
44103;BME280;29769;42.178;24.742;2022-12-18T03:04:30;100342.06;;;8.54;100.00
44103;BME280;29769;42.178;24.742;2022-12-18T03:07:22;100342.09;;;8.59;100.00
44103;BME280;29769;42.178;24.742;2022-12-18T03:10:13;100347.34;;;8.60;100.00
44103;BME280;29769;42.178;24.742;2022-12-18T03:13:00;100351.72;;;8.60;100.00
44103;BME280;29769;42.178;24.742;2022-12-18T03:15:49;100353.44;;;8.55;100.00
44103;BME280;29769;42.178;24.742;2022-12-18T03:18:49;100348.19;;;8.50;100.00
44103;BME280;29769;42.178;24.742;2022-12-18T03:21:40;100352.59;;;8.60;100.00
44103;BME280;29769;42.178;24.742;2022-12-18T03:24:26;100347.38;;;8.74;100.00
44103;BME280;29769;42.178;24.742;2022-12-18T03:27:14;100346.53;;;8.84;100.00
44103;BME280;29769;42.178;24.742;2022-12-18T03:30:08;100351.81;;;8.85;100.00
44103;BME280;29769;42.178;24.742;2022-12-18T03:32:58;100347.41;;;8.87;100.00
44103;BME280;29769;42.178;24.742;2022-12-18T03:35:46;100359.66;;;8.87;100.00
44103;BME280;29769;42.178;24.742;2022-12-18T03:38:31;100357.06;;;8.88;100.00
44103;BME280;29769;42.178;24.742;2022-12-18T03:44:49;100379.78;;;8.92;100.00
44103;BME280;29769;42.178;24.742;2022-12-18T03:47:37;100388.53;;;8.91;100.00
44103;BME280;29769;42.178;24.742;2022-12-18T03:56:21;100396.41;;;9.01;100.00
44103;BME280;29769;42.178;24.742;2022-12-18T03:59:07;100400.81;;;9.05;100.00
44103;BME280;29769;42.178;24.742;2022-12-18T04:01:53;100408.69;;;9.02;100.00
44103;BME280;29769;42.178;24.742;2022-12-18T04:04:38;100399.06;;;8.99;100.00
44103;BME280;29769;42.178;24.742;2022-12-18T04:07:23;100398.19;;;9.02;100.00
44103;BME280;29769;42.178;24.742;2022-12-18T04:10:08;100404.28;;;9.01;100.00
44103;BME280;29769;42.178;24.742;2022-12-18T04:12:57;100411.28;;;8.97;100.00
44103;BME280;29769;42.178;24.742;2022-12-18T04:15:42;100414.78;;;8.96;100.00
44103;BME280;29769;42.178;24.742;2022-12-18T04:18:31;100418.28;;;8.93;100.00
44103;BME280;29769;42.178;24.742;2022-12-18T04:21:18;100419.19;;;8.99;100.00
44103;BME280;29769;42.178;24.742;2022-12-18T04:24:04;100417.41;;;8.98;100.00
44103;BME280;29769;42.178;24.742;2022-12-18T04:26:51;100403.44;;;9.02;100.00
44103;BME280;29769;42.178;24.742;2022-12-18T04:29:40;100425.31;;;9.04;100.00
44103;BME280;29769;42.178;24.742;2022-12-18T04:32:25;100427.06;;;9.03;100.00
44103;BME280;29769;42.178;24.742;2022-12-18T04:35:10;100424.41;;;9.00;100.00
44103;BME280;29769;42.178;24.742;2022-12-18T04:37:59;100436.66;;;8.98;100.00
44103;BME280;29769;42.178;24.742;2022-12-18T04:40:45;100426.16;;;8.98;100.00
44103;BME280;29769;42.178;24.742;2022-12-18T04:43:38;100430.53;;;8.95;100.00
44103;BME280;29769;42.178;24.742;2022-12-18T04:46:22;100439.25;;;8.84;100.00
44103;BME280;29769;42.178;24.742;2022-12-18T04:49:07;100439.22;;;8.75;100.00
44103;BME280;29769;42.178;24.742;2022-12-18T04:51:51;100430.44;;;8.69;100.00
44103;BME280;29769;42.178;24.742;2022-12-18T04:54:37;100439.13;;;8.59;100.00
44103;BME280;29769;42.178;24.742;2022-12-18T04:57:22;100441.72;;;8.51;100.00
44103;BME280;29769;42.178;24.742;2022-12-18T05:00:07;100453.94;;;8.44;100.00
44103;BME280;29769;42.178;24.742;2022-12-18T05:02:52;100448.69;;;8.44;100.00
44103;BME280;29769;42.178;24.742;2022-12-18T05:05:36;100455.69;;;8.44;100.00
44103;BME280;29769;42.178;24.742;2022-12-18T05:08:21;100457.41;;;8.46;100.00
44103;BME280;29769;42.178;24.742;2022-12-18T05:11:07;100472.28;;;8.47;100.00
44103;BME280;29769;42.178;24.742;2022-12-18T05:13:51;100470.53;;;8.46;100.00
44103;BME280;29769;42.178;24.742;2022-12-18T05:16:36;100486.25;;;8.45;100.00
44103;BME280;29769;42.178;24.742;2022-12-18T05:19:20;100486.25;;;8.43;100.00
44103;BME280;29769;42.178;24.742;2022-12-18T05:22:05;100487.16;;;8.50;100.00
44103;BME280;29769;42.178;24.742;2022-12-18T05:24:52;100488.91;;;8.51;100.00
44103;BME280;29769;42.178;24.742;2022-12-18T05:27:37;100504.66;;;8.51;100.00
44103;BME280;29769;42.178;24.742;2022-12-18T05:30:21;100499.41;;;8.53;100.00
44103;BME280;29769;42.178;24.742;2022-12-18T05:33:06;100509.03;;;8.54;100.00
44103;BME280;29769;42.178;24.742;2022-12-18T05:35:54;100509.91;;;8.59;100.00
44103;BME280;29769;42.178;24.742;2022-12-18T05:38:40;100520.44;;;8.60;100.00
44103;BME280;29769;42.178;24.742;2022-12-18T05:41:24;100509.97;;;8.62;100.00
44103;BME280;29769;42.178;24.742;2022-12-18T05:44:09;100530.94;;;8.65;100.00
44103;BME280;29769;42.178;24.742;2022-12-18T05:46:54;100525.72;;;8.69;100.00
44103;BME280;29769;42.178;24.742;2022-12-18T05:49:38;100537.97;;;8.67;100.00
44103;BME280;29769;42.178;24.742;2022-12-18T05:52:23;100557.19;;;8.69;100.00
44103;BME280;29769;42.178;24.742;2022-12-18T05:55:07;100544.97;;;8.70;100.00
44103;BME280;29769;42.178;24.742;2022-12-18T05:57:52;100541.47;;;8.71;100.00
44103;BME280;29769;42.178;24.742;2022-12-18T06:00:37;100557.22;;;8.71;100.00
44103;BME280;29769;42.178;24.742;2022-12-18T06:03:24;100537.97;;;8.70;100.00
44103;BME280;29769;42.178;24.742;2022-12-18T06:06:12;100562.44;;;8.66;100.00
44103;BME280;29769;42.178;24.742;2022-12-18T06:08:57;100573.78;;;8.62;100.00
44103;BME280;29769;42.178;24.742;2022-12-18T06:11:41;100574.66;;;8.63;100.00
44103;BME280;29769;42.178;24.742;2022-12-18T06:14:26;100579.03;;;8.64;100.00
44103;BME280;29769;42.178;24.742;2022-12-18T06:17:10;100586.91;;;8.68;100.00
44103;BME280;29769;42.178;24.742;2022-12-18T06:19:55;100588.72;;;8.75;100.00
44103;BME280;29769;42.178;24.742;2022-12-18T06:22:40;100581.72;;;8.77;100.00
44103;BME280;29769;42.178;24.742;2022-12-18T06:25:24;100573.00;;;8.81;100.00
44103;BME280;29769;42.178;24.742;2022-12-18T06:28:09;100573.06;;;8.89;100.00
44103;BME280;29769;42.178;24.742;2022-12-18T06:30:54;100597.56;;;8.91;100.00
44103;BME280;29769;42.178;24.742;2022-12-18T06:33:39;100603.72;;;8.96;100.00
44103;BME280;29769;42.178;24.742;2022-12-18T06:36:23;100606.38;;;8.99;100.00
44103;BME280;29769;42.178;24.742;2022-12-18T06:39:08;100610.69;;;8.96;100.00
44103;BME280;29769;42.178;24.742;2022-12-18T06:41:52;100629.06;;;8.96;100.00
44103;BME280;29769;42.178;24.742;2022-12-18T06:44:37;100622.09;;;8.95;100.00
44103;BME280;29769;42.178;24.742;2022-12-18T06:47:21;100638.69;;;8.93;100.00
44103;BME280;29769;42.178;24.742;2022-12-18T06:50:06;100626.44;;;8.92;100.00
44103;BME280;29769;42.178;24.742;2022-12-18T06:52:51;100637.84;;;8.95;100.00
44103;BME280;29769;42.178;24.742;2022-12-18T06:55:35;100645.66;;;8.91;100.00
44103;BME280;29769;42.178;24.742;2022-12-18T06:58:20;100658.81;;;8.93;100.00
44103;BME280;29769;42.178;24.742;2022-12-18T07:01:05;100660.53;;;8.91;100.00
44103;BME280;29769;42.178;24.742;2022-12-18T07:03:54;100664.84;;;8.83;100.00
44103;BME280;29769;42.178;24.742;2022-12-18T07:06:39;100670.06;;;8.81;100.00
44103;BME280;29769;42.178;24.742;2022-12-18T07:09:24;100667.44;;;8.78;100.00
44103;BME280;29769;42.178;24.742;2022-12-18T07:12:08;100668.31;;;8.76;100.00
44103;BME280;29769;42.178;24.742;2022-12-18T07:14:52;100670.94;;;8.76;100.00
44103;BME280;29769;42.178;24.742;2022-12-18T07:17:37;100681.47;;;8.83;100.00
44103;BME280;29769;42.178;24.742;2022-12-18T07:20:22;100663.13;;;8.86;100.00
44103;BME280;29769;42.178;24.742;2022-12-18T07:23:06;100675.41;;;8.89;100.00
44103;BME280;29769;42.178;24.742;2022-12-18T07:25:51;100680.66;;;8.92;100.00
44103;BME280;29769;42.178;24.742;2022-12-18T07:28:36;100679.78;;;8.93;100.00
44103;BME280;29769;42.178;24.742;2022-12-18T07:31:21;100685.03;;;8.91;100.00
44103;BME280;29769;42.178;24.742;2022-12-18T07:34:09;100680.69;;;8.93;100.00
44103;BME280;29769;42.178;24.742;2022-12-18T07:36:54;100684.19;;;8.94;100.00
44103;BME280;29769;42.178;24.742;2022-12-18T07:39:38;100688.53;;;8.95;100.00
44103;BME280;29769;42.178;24.742;2022-12-18T07:42:23;100696.44;;;8.97;100.00
44103;BME280;29769;42.178;24.742;2022-12-18T07:45:17;100649.84;;;8.64;100.00
44103;BME280;29769;42.178;24.742;2022-12-18T07:48:01;100710.41;;;8.94;100.00
44103;BME280;29769;42.178;24.742;2022-12-18T07:50:46;100698.19;;;8.95;100.00
44103;BME280;29769;42.178;24.742;2022-12-18T07:53:31;100707.81;;;8.97;100.00
44103;BME280;29769;42.178;24.742;2022-12-18T07:56:16;100713.97;;;9.02;100.00
44103;BME280;29769;42.178;24.742;2022-12-18T07:59:00;100705.25;;;9.03;100.00
44103;BME280;29769;42.178;24.742;2022-12-18T08:01:48;100704.34;;;9.04;100.00
44103;BME280;29769;42.178;24.742;2022-12-18T08:04:35;100717.50;;;9.09;100.00
44103;BME280;29769;42.178;24.742;2022-12-18T08:07:20;100723.69;;;9.12;100.00
44103;BME280;29769;42.178;24.742;2022-12-18T08:10:05;100714.06;;;9.16;100.00
44103;BME280;29769;42.178;24.742;2022-12-18T08:12:50;100738.59;;;9.22;100.00
44103;BME280;29769;42.178;24.742;2022-12-18T08:15:35;100744.78;;;9.26;100.00
44103;BME280;29769;42.178;24.742;2022-12-18T08:18:20;100730.78;;;9.28;100.00
44103;BME280;29769;42.178;24.742;2022-12-18T08:21:08;100730.78;;;9.30;100.00
44103;BME280;29769;42.178;24.742;2022-12-18T08:23:53;100743.09;;;9.35;100.00
44103;BME280;29769;42.178;24.742;2022-12-18T08:26:38;100743.06;;;9.37;100.00
44103;BME280;29769;42.178;24.742;2022-12-18T08:29:23;100748.34;;;9.38;100.00
44103;BME280;29769;42.178;24.742;2022-12-18T08:32:07;100751.00;;;9.43;100.00
44103;BME280;29769;42.178;24.742;2022-12-18T08:34:52;100748.38;;;9.43;100.00
44103;BME280;29769;42.178;24.742;2022-12-18T08:37:36;100744.00;;;9.47;100.00
44103;BME280;29769;42.178;24.742;2022-12-18T08:40:21;100745.78;;;9.48;100.00
44103;BME280;29769;42.178;24.742;2022-12-18T08:43:06;100750.16;;;9.50;100.00
44103;BME280;29769;42.178;24.742;2022-12-18T08:46:10;100744.06;;;9.56;100.00
44103;BME280;29769;42.178;24.742;2022-12-18T08:48:54;100759.00;;;9.63;100.00
44103;BME280;29769;42.178;24.742;2022-12-18T08:51:40;100751.13;;;9.63;100.00
44103;BME280;29769;42.178;24.742;2022-12-18T08:54:24;100748.47;;;9.61;100.00
44103;BME280;29769;42.178;24.742;2022-12-18T08:57:09;100743.22;;;9.61;100.00
44103;BME280;29769;42.178;24.742;2022-12-18T08:59:53;100737.97;;;9.64;100.00
44103;BME280;29769;42.178;24.742;2022-12-18T09:02:38;100742.38;;;9.62;100.00
44103;BME280;29769;42.178;24.742;2022-12-18T09:05:22;100737.97;;;9.61;100.00
44103;BME280;29769;42.178;24.742;2022-12-18T09:08:07;100741.47;;;9.62;100.00
44103;BME280;29769;42.178;24.742;2022-12-18T09:10:52;100744.09;;;9.60;100.00
44103;BME280;29769;42.178;24.742;2022-12-18T09:13:36;100741.47;;;9.63;100.00
44103;BME280;29769;42.178;24.742;2022-12-18T09:16:22;100746.72;;;9.63;100.00
44103;BME280;29769;42.178;24.742;2022-12-18T09:19:07;100759.84;;;9.63;100.00
44103;BME280;29769;42.178;24.742;2022-12-18T09:21:51;100738.81;;;9.59;100.00
44103;BME280;29769;42.178;24.742;2022-12-18T09:24:35;100744.97;;;9.61;100.00
44103;BME280;29769;42.178;24.742;2022-12-18T09:27:20;100751.09;;;9.61;100.00
44103;BME280;29769;42.178;24.742;2022-12-18T09:30:04;100744.97;;;9.59;100.00
44103;BME280;29769;42.178;24.742;2022-12-18T09:32:49;100737.06;;;9.55;100.00
44103;BME280;29769;42.178;24.742;2022-12-18T09:35:37;100742.28;;;9.52;100.00
44103;BME280;29769;42.178;24.742;2022-12-18T09:38:24;100737.94;;;9.52;100.00
44103;BME280;29769;42.178;24.742;2022-12-18T09:44:17;100751.00;;;9.46;100.00
44103;BME280;29769;42.178;24.742;2022-12-18T09:47:16;100746.66;;;9.48;100.00
44103;BME280;29769;42.178;24.742;2022-12-18T09:50:04;100751.91;;;9.51;100.00
44103;BME280;29769;42.178;24.742;2022-12-18T09:52:51;100751.06;;;9.54;100.00
44103;BME280;29769;42.178;24.742;2022-12-18T09:55:37;100753.69;;;9.55;100.00
44103;BME280;29769;42.178;24.742;2022-12-18T09:58:26;100758.97;;;9.58;100.00
44103;BME280;29769;42.178;24.742;2022-12-18T10:01:18;100757.22;;;9.60;100.00
44103;BME280;29769;42.178;24.742;2022-12-18T10:04:04;100757.25;;;9.62;100.00
44103;BME280;29769;42.178;24.742;2022-12-18T10:07:00;100751.97;;;9.60;100.00
44103;BME280;29769;42.178;24.742;2022-12-18T10:09:53;100754.59;;;9.60;100.00
44103;BME280;29769;42.178;24.742;2022-12-18T10:21:32;100749.38;;;9.66;100.00
44103;BME280;29769;42.178;24.742;2022-12-18T10:27:35;100742.41;;;9.71;100.00
44103;BME280;29769;42.178;24.742;2022-12-18T10:30:20;100738.88;;;9.72;100.00
44103;BME280;29769;42.178;24.742;2022-12-18T10:33:05;100739.78;;;9.74;100.00
44103;BME280;29769;42.178;24.742;2022-12-18T10:35:50;100754.69;;;9.75;100.00
44103;BME280;29769;42.178;24.742;2022-12-18T10:38:36;100748.56;;;9.76;100.00
44103;BME280;29769;42.178;24.742;2022-12-18T10:46:55;100758.19;;;9.76;100.00
44103;BME280;29769;42.178;24.742;2022-12-18T10:49:47;100762.56;;;9.75;100.00
44103;BME280;29769;42.178;24.742;2022-12-18T10:52:34;100780.06;;;9.73;100.00
44103;BME280;29769;42.178;24.742;2022-12-18T10:55:18;100784.44;;;9.73;100.00
44103;BME280;29769;42.178;24.742;2022-12-18T11:01:10;100783.50;;;9.63;100.00
44103;BME280;29769;42.178;24.742;2022-12-18T11:06:52;100776.47;;;9.53;100.00
44103;BME280;29769;42.178;24.742;2022-12-18T11:09:38;100777.31;;;9.49;100.00
44103;BME280;29769;42.178;24.742;2022-12-18T11:12:22;100776.38;;;9.46;100.00
44103;BME280;29769;42.178;24.742;2022-12-18T11:15:13;100777.25;;;9.43;100.00
44103;BME280;29769;42.178;24.742;2022-12-18T11:17:59;100791.25;;;9.39;100.00
44103;BME280;29769;42.178;24.742;2022-12-18T11:20:43;100787.72;;;9.35;100.00
44103;BME280;29769;42.178;24.742;2022-12-18T11:23:34;100791.06;;;9.16;100.00
44103;BME280;29769;42.178;24.742;2022-12-18T11:26:19;100788.25;;;8.92;100.00
44103;BME280;29769;42.178;24.742;2022-12-18T11:29:08;100790.66;;;8.71;100.00
44103;BME280;29769;42.178;24.742;2022-12-18T11:32:40;100780.84;;;8.52;100.00
44103;BME280;29769;42.178;24.742;2022-12-18T11:35:21;100793.00;;;8.42;100.00
44103;BME280;29769;42.178;24.742;2022-12-18T11:38:46;100794.69;;;8.37;100.00
44103;BME280;29769;42.178;24.742;2022-12-18T11:44:04;100804.31;;;8.38;100.00
44103;BME280;29769;42.178;24.742;2022-12-18T11:46:52;100803.25;;;8.27;100.00
44103;BME280;29769;42.178;24.742;2022-12-18T11:49:39;100801.47;;;8.23;100.00
44103;BME280;29769;42.178;24.742;2022-12-18T11:52:26;100801.47;;;8.21;100.00
44103;BME280;29769;42.178;24.742;2022-12-18T11:55:16;100802.34;;;8.23;100.00
44103;BME280;29769;42.178;24.742;2022-12-18T11:58:27;100805.97;;;8.31;100.00
44103;BME280;29769;42.178;24.742;2022-12-18T12:04:39;100807.13;;;8.56;100.00
44103;BME280;29769;42.178;24.742;2022-12-18T12:10:40;100828.22;;;8.67;100.00
44103;BME280;29769;42.178;24.742;2022-12-18T12:13:41;100811.69;;;8.77;100.00
44103;BME280;29769;42.178;24.742;2022-12-18T12:16:51;100809.19;;;8.87;100.00
44103;BME280;29769;42.178;24.742;2022-12-18T12:28:15;100810.97;;;8.91;100.00
44103;BME280;29769;42.178;24.742;2022-12-18T12:33:57;100822.31;;;8.87;100.00
44103;BME280;29769;42.178;24.742;2022-12-18T12:39:38;100838.88;;;8.80;100.00
44103;BME280;29769;42.178;24.742;2022-12-18T12:45:33;100837.97;;;8.78;100.00
44103;BME280;29769;42.178;24.742;2022-12-18T12:51:26;100850.22;;;8.79;100.00
44103;BME280;29769;42.178;24.742;2022-12-18T12:54:16;100856.28;;;8.77;100.00
44103;BME280;29769;42.178;24.742;2022-12-18T12:57:04;100859.81;;;8.76;100.00
44103;BME280;29769;42.178;24.742;2022-12-18T13:03:01;100872.88;;;8.73;100.00
44103;BME280;29769;42.178;24.742;2022-12-18T13:05:50;100870.25;;;8.71;100.00
44103;BME280;29769;42.178;24.742;2022-12-18T13:08:54;100881.69;;;8.76;100.00
44103;BME280;29769;42.178;24.742;2022-12-18T13:11:43;100885.16;;;8.75;100.00
44103;BME280;29769;42.178;24.742;2022-12-18T13:15:19;100878.19;;;8.79;100.00
44103;BME280;29769;42.178;24.742;2022-12-18T13:18:05;100881.69;;;8.79;100.00
44103;BME280;29769;42.178;24.742;2022-12-18T13:23:39;100901.81;;;8.79;100.00
44103;BME280;29769;42.178;24.742;2022-12-18T13:29:11;100900.94;;;8.80;100.00
44103;BME280;29769;42.178;24.742;2022-12-18T13:31:59;100900.91;;;8.78;100.00
44103;BME280;29769;42.178;24.742;2022-12-18T13:34:44;100904.41;;;8.77;100.00
44103;BME280;29769;42.178;24.742;2022-12-18T13:51:55;100917.41;;;8.68;100.00
44103;BME280;29769;42.178;24.742;2022-12-18T13:54:40;100916.50;;;8.65;100.00
44103;BME280;29769;42.178;24.742;2022-12-18T13:57:30;100911.22;;;8.62;100.00
44103;BME280;29769;42.178;24.742;2022-12-18T14:03:15;100928.75;;;8.63;100.00
44103;BME280;29769;42.178;24.742;2022-12-18T14:06:05;100932.25;;;8.65;100.00
44103;BME280;29769;42.178;24.742;2022-12-18T14:08:51;100934.03;;;8.67;100.00
44103;BME280;29769;42.178;24.742;2022-12-18T14:11:37;100946.25;;;8.68;100.00
44103;BME280;29769;42.178;24.742;2022-12-18T14:14:21;100953.19;;;8.62;100.00
44103;BME280;29769;42.178;24.742;2022-12-18T14:17:08;100957.53;;;8.60;100.00
44103;BME280;29769;42.178;24.742;2022-12-18T14:19:53;100962.78;;;8.58;100.00
44103;BME280;29769;42.178;24.742;2022-12-18T14:22:37;100959.28;;;8.61;100.00
44103;BME280;29769;42.178;24.742;2022-12-18T14:25:27;100959.31;;;8.62;100.00
44103;BME280;29769;42.178;24.742;2022-12-18T14:28:13;100972.44;;;8.62;100.00
44103;BME280;29769;42.178;24.742;2022-12-18T14:30:58;100975.84;;;8.57;100.00
44103;BME280;29769;42.178;24.742;2022-12-18T14:33:43;100984.53;;;8.54;100.00
44103;BME280;29769;42.178;24.742;2022-12-18T14:36:28;100970.53;;;8.49;100.00
44103;BME280;29769;42.178;24.742;2022-12-18T14:39:16;100976.56;;;8.45;100.00
44103;BME280;29769;42.178;24.742;2022-12-18T14:42:01;100980.06;;;8.44;100.00
44103;BME280;29769;42.178;24.742;2022-12-18T14:44:45;100979.19;;;8.43;100.00
44103;BME280;29769;42.178;24.742;2022-12-18T14:47:30;100990.53;;;8.42;100.00
44103;BME280;29769;42.178;24.742;2022-12-18T14:50:14;100985.31;;;8.44;100.00
44103;BME280;29769;42.178;24.742;2022-12-18T14:52:59;100987.00;;;8.42;100.00
44103;BME280;29769;42.178;24.742;2022-12-18T14:55:47;100994.03;;;8.43;100.00
44103;BME280;29769;42.178;24.742;2022-12-18T14:58:32;100996.63;;;8.40;100.00
44103;BME280;29769;42.178;24.742;2022-12-18T15:01:18;100975.47;;;8.29;100.00
44103;BME280;29769;42.178;24.742;2022-12-18T15:04:03;101000.94;;;8.38;100.00
44103;BME280;29769;42.178;24.742;2022-12-18T15:06:48;100997.47;;;8.39;100.00
44103;BME280;29769;42.178;24.742;2022-12-18T15:09:33;101007.06;;;8.38;100.00
44103;BME280;29769;42.178;24.742;2022-12-18T15:12:35;101009.63;;;8.34;100.00
44103;BME280;29769;42.178;24.742;2022-12-18T15:18:21;101017.22;;;8.19;100.00
44103;BME280;29769;42.178;24.742;2022-12-18T15:21:08;101028.47;;;8.12;100.00
44103;BME280;29769;42.178;24.742;2022-12-18T15:23:53;101030.25;;;8.13;100.00
44103;BME280;29769;42.178;24.742;2022-12-18T15:26:38;101032.03;;;8.15;100.00
44103;BME280;29769;42.178;24.742;2022-12-18T15:29:23;101028.63;;;8.22;100.00
44103;BME280;29769;42.178;24.742;2022-12-18T15:32:15;101032.16;;;8.24;100.00
44103;BME280;29769;42.178;24.742;2022-12-18T15:35:07;101048.03;;;8.30;100.00
44103;BME280;29769;42.178;24.742;2022-12-18T15:37:56;101049.91;;;8.40;100.00
44103;BME280;29769;42.178;24.742;2022-12-18T15:40:40;101060.53;;;8.48;100.00
44103;BME280;29769;42.178;24.742;2022-12-18T15:43:25;101072.94;;;8.58;100.00
44103;BME280;29769;42.178;24.742;2022-12-18T15:46:20;101075.72;;;8.70;100.00
44103;BME280;29769;42.178;24.742;2022-12-18T15:49:05;101083.72;;;8.79;100.00
44103;BME280;29769;42.178;24.742;2022-12-18T15:51:51;101081.19;;;8.87;100.00
44103;BME280;29769;42.178;24.742;2022-12-18T15:54:37;101083.00;;;8.91;100.00
44103;BME280;29769;42.178;24.742;2022-12-18T15:57:40;101083.00;;;8.89;100.00
44103;BME280;29769;42.178;24.742;2022-12-18T16:00:25;101090.81;;;8.86;100.00
44103;BME280;29769;42.178;24.742;2022-12-18T16:03:09;101097.84;;;8.89;100.00
44103;BME280;29769;42.178;24.742;2022-12-18T16:05:54;101099.59;;;8.88;100.00
44103;BME280;29769;42.178;24.742;2022-12-18T16:08:38;101094.31;;;8.87;100.00
44103;BME280;29769;42.178;24.742;2022-12-18T16:11:24;101088.06;;;8.76;100.00
44103;BME280;29769;42.178;24.742;2022-12-18T16:14:23;101096.66;;;8.67;100.00
44103;BME280;29769;42.178;24.742;2022-12-18T16:17:09;101087.72;;;8.55;100.00
44103;BME280;29769;42.178;24.742;2022-12-18T16:19:54;101090.13;;;8.39;100.00
44103;BME280;29769;42.178;24.742;2022-12-18T16:22:38;101093.53;;;8.34;100.00
44103;BME280;29769;42.178;24.742;2022-12-18T16:25:24;101101.34;;;8.31;100.00
44103;BME280;29769;42.178;24.742;2022-12-18T16:28:09;101103.97;;;8.32;100.00
44103;BME280;29769;42.178;24.742;2022-12-18T16:30:54;101112.69;;;8.30;100.00
44103;BME280;29769;42.178;24.742;2022-12-18T16:33:38;101113.66;;;8.35;100.00
44103;BME280;29769;42.178;24.742;2022-12-18T16:36:23;101116.34;;;8.41;100.00